createdAt,value
2017-05-06T00:01:06.933Z,0
2017-05-06T00:02:19.152Z,0
2017-05-06T00:03:31.683Z,0
2017-05-06T00:04:43.943Z,0
2017-05-06T00:05:56.500Z,0
2017-05-06T00:07:09.045Z,0
2017-05-06T00:08:21.282Z,0
2017-05-06T00:09:33.812Z,0
2017-05-06T00:10:46.348Z,0
2017-05-06T00:11:58.893Z,0
2017-05-06T00:13:11.398Z,0
2017-05-06T00:14:23.652Z,0
2017-05-06T00:15:36.189Z,0
2017-05-06T00:16:48.735Z,0
2017-05-06T00:18:01.274Z,0
2017-05-06T00:19:13.797Z,0
2017-05-06T00:20:26.352Z,0
2017-05-06T00:21:38.590Z,0
2017-05-06T00:22:51.098Z,0
2017-05-06T00:24:03.629Z,0
2017-05-06T00:25:16.199Z,0
2017-05-06T00:26:28.744Z,0
2017-05-06T00:27:41.544Z,0
2017-05-06T00:28:54.071Z,0
2017-05-06T00:30:06.589Z,0
2017-05-06T00:31:18.811Z,0
2017-05-06T00:32:31.352Z,0
2017-05-06T00:33:43.599Z,0
2017-05-06T00:34:56.144Z,0
2017-05-06T00:36:08.690Z,0
2017-05-06T00:37:21.248Z,0
2017-05-06T00:38:33.811Z,0
2017-05-06T00:39:46.353Z,0
2017-05-06T00:40:58.581Z,0
2017-05-06T00:42:11.103Z,0
2017-05-06T00:43:23.045Z,0
2017-05-06T00:44:35.593Z,0
2017-05-06T00:45:48.087Z,0
2017-05-06T00:47:00.608Z,0
2017-05-06T00:48:12.549Z,0
2017-05-06T00:49:25.102Z,0
2017-05-06T00:50:37.337Z,0
2017-05-06T00:51:49.567Z,0
2017-05-06T00:53:02.115Z,0
2017-05-06T00:54:14.362Z,0
2017-05-06T00:55:26.908Z,0
2017-05-06T00:56:39.450Z,0
2017-05-06T00:57:51.674Z,0
2017-05-06T00:59:04.202Z,0
2017-05-06T01:00:16.733Z,0
2017-05-06T01:01:29.284Z,0
2017-05-06T01:02:41.825Z,0
2017-05-06T01:03:54.368Z,0
2017-05-06T01:05:06.925Z,0
2017-05-06T01:06:19.146Z,0
2017-05-06T01:07:31.692Z,0
2017-05-06T01:08:44.239Z,0
2017-05-06T01:09:56.473Z,0
2017-05-06T01:11:09.004Z,0
2017-05-06T01:12:20.896Z,0
2017-05-06T01:13:33.396Z,0
2017-05-06T01:14:45.934Z,0
2017-05-06T01:15:58.161Z,0
2017-05-06T01:17:10.683Z,0
2017-05-06T01:18:23.202Z,0
2017-05-06T01:19:35.427Z,0
2017-05-06T01:20:47.976Z,0
2017-05-06T01:22:00.515Z,0
2017-05-06T01:23:13.031Z,0
2017-05-06T01:24:25.559Z,0
2017-05-06T01:25:38.078Z,0
2017-05-06T01:26:50.578Z,0
2017-05-06T01:28:02.811Z,0
2017-05-06T01:29:15.039Z,0
2017-05-06T01:30:27.595Z,0
2017-05-06T01:31:40.135Z,0
2017-05-06T01:32:52.657Z,0
2017-05-06T01:34:05.204Z,0
2017-05-06T01:35:16.844Z,0
2017-05-06T01:36:29.341Z,0
2017-05-06T01:37:41.864Z,0
2017-05-06T01:38:54.382Z,0
2017-05-06T01:40:06.610Z,0
2017-05-06T01:41:18.524Z,0
2017-05-06T01:42:31.041Z,0
2017-05-06T01:43:43.568Z,0
2017-05-06T01:44:55.812Z,0
2017-05-06T01:46:08.049Z,0
2017-05-06T01:47:20.311Z,0
2017-05-06T01:48:32.860Z,0
2017-05-06T01:49:45.125Z,0
2017-05-06T01:50:57.645Z,0
2017-05-06T01:52:10.182Z,0
2017-05-06T01:53:22.426Z,0
2017-05-06T01:54:34.680Z,0
2017-05-06T01:55:46.907Z,0
2017-05-06T01:56:59.424Z,0
2017-05-06T01:58:11.646Z,0
2017-05-06T01:59:24.466Z,0
2017-05-06T02:00:36.983Z,0
2017-05-06T02:01:49.534Z,0
2017-05-06T02:03:01.781Z,0
2017-05-06T02:04:14.343Z,0
2017-05-06T02:05:26.872Z,0
2017-05-06T02:06:39.424Z,0
2017-05-06T02:07:51.362Z,0
2017-05-06T02:09:03.576Z,0
2017-05-06T02:10:15.800Z,0
2017-05-06T02:11:27.749Z,0
2017-05-06T02:12:40.288Z,0
2017-05-06T02:13:52.531Z,0
2017-05-06T02:15:05.088Z,0
2017-05-06T02:16:17.322Z,0
2017-05-06T02:17:29.553Z,0
2017-05-06T02:18:42.093Z,0
2017-05-06T02:19:54.620Z,0
2017-05-06T02:21:07.114Z,0
2017-05-06T02:22:19.639Z,0
2017-05-06T02:23:32.181Z,0
2017-05-06T02:24:44.404Z,0
2017-05-06T02:25:56.965Z,0
2017-05-06T02:27:09.473Z,0
2017-05-06T02:28:21.435Z,0
2017-05-06T02:29:33.935Z,0
2017-05-06T02:30:46.449Z,0
2017-05-06T02:31:58.997Z,0
2017-05-06T02:33:10.923Z,0
2017-05-06T02:34:23.150Z,0
2017-05-06T02:35:35.665Z,0
2017-05-06T02:36:48.217Z,0
2017-05-06T02:38:00.752Z,0
2017-05-06T02:39:12.978Z,0
2017-05-06T02:40:25.497Z,0
2017-05-06T02:41:37.701Z,0
2017-05-06T02:42:50.262Z,0
2017-05-06T02:44:02.507Z,0
2017-05-06T02:45:14.412Z,0
2017-05-06T02:46:26.938Z,0
2017-05-06T02:47:39.470Z,0
2017-05-06T02:48:52.001Z,0
2017-05-06T02:50:04.542Z,0
2017-05-06T02:51:16.757Z,0
2017-05-06T02:52:29.300Z,0
2017-05-06T02:53:41.827Z,0
2017-05-06T02:54:54.368Z,0
2017-05-06T02:56:06.891Z,0
2017-05-06T02:57:19.445Z,0
2017-05-06T02:58:31.955Z,0
2017-05-06T02:59:44.535Z,0
2017-05-06T03:00:57.058Z,0
2017-05-06T03:02:09.323Z,0
2017-05-06T03:03:21.846Z,0
2017-05-06T03:04:34.368Z,0
2017-05-06T03:05:46.905Z,0
2017-05-06T03:06:59.438Z,0
2017-05-06T03:08:11.980Z,0
2017-05-06T03:09:24.192Z,0
2017-05-06T03:10:36.739Z,0
2017-05-06T03:11:49.315Z,0
2017-05-06T03:13:01.841Z,0
2017-05-06T03:14:14.080Z,0
2017-05-06T03:15:26.632Z,0
2017-05-06T03:16:38.868Z,0
2017-05-06T03:17:51.399Z,0
2017-05-06T03:19:03.622Z,5
2017-05-06T03:20:16.194Z,5
2017-05-06T03:21:28.763Z,5
2017-05-06T03:22:41.280Z,5
2017-05-06T03:23:53.831Z,5
2017-05-06T03:25:06.077Z,5
2017-05-06T03:26:18.593Z,10
2017-05-06T03:27:31.122Z,10
2017-05-06T03:28:43.358Z,10
2017-05-06T03:29:55.884Z,10
2017-05-06T03:31:08.108Z,15
2017-05-06T03:32:20.944Z,15
2017-05-06T03:33:33.472Z,15
2017-05-06T03:34:46.006Z,20
2017-05-06T03:35:58.231Z,20
2017-05-06T03:37:10.174Z,25
2017-05-06T03:38:22.077Z,30
2017-05-06T03:39:34.623Z,30
2017-05-06T03:40:47.150Z,35
2017-05-06T03:41:59.711Z,35
2017-05-06T03:43:12.240Z,40
2017-05-06T03:44:24.473Z,45
2017-05-06T03:45:37.006Z,50
2017-05-06T03:46:49.545Z,50
2017-05-06T03:48:02.090Z,50
2017-05-06T03:49:14.633Z,50
2017-05-06T03:50:26.580Z,50
2017-05-06T03:51:38.810Z,50
2017-05-06T03:52:51.375Z,50
2017-05-06T03:54:03.902Z,55
2017-05-06T03:55:16.437Z,55
2017-05-06T03:56:28.995Z,55
2017-05-06T03:57:41.554Z,55
2017-05-06T03:58:54.083Z,65
2017-05-06T04:00:06.632Z,65
2017-05-06T04:01:18.581Z,70
2017-05-06T04:02:30.795Z,70
2017-05-06T04:03:43.318Z,70
2017-05-06T04:04:56.092Z,75
2017-05-06T04:06:08.335Z,75
2017-05-06T04:07:20.549Z,85
2017-05-06T04:08:32.796Z,105
2017-05-06T04:09:45.029Z,110
2017-05-06T04:10:57.588Z,110
2017-05-06T04:12:10.129Z,115
2017-05-06T04:13:21.775Z,130
2017-05-06T04:14:34.033Z,140
2017-05-06T04:15:46.568Z,145
2017-05-06T04:16:59.100Z,130
2017-05-06T04:18:11.347Z,125
2017-05-06T04:19:23.885Z,125
2017-05-06T04:20:36.393Z,130
2017-05-06T04:21:48.622Z,135
2017-05-06T04:23:01.144Z,125
2017-05-06T04:24:13.401Z,130
2017-05-06T04:25:25.663Z,135
2017-05-06T04:26:38.211Z,145
2017-05-06T04:27:50.737Z,150
2017-05-06T04:29:03.298Z,145
2017-05-06T04:30:15.504Z,140
2017-05-06T04:31:27.752Z,135
2017-05-06T04:32:40.273Z,155
2017-05-06T04:33:52.793Z,175
2017-05-06T04:35:05.352Z,185
2017-05-06T04:36:17.601Z,200
2017-05-06T04:37:29.532Z,195
2017-05-06T04:38:42.052Z,180
2017-05-06T04:39:54.595Z,185
2017-05-06T04:41:07.115Z,190
2017-05-06T04:42:19.635Z,180
2017-05-06T04:43:32.157Z,180
2017-05-06T04:44:44.427Z,195
2017-05-06T04:45:56.953Z,200
2017-05-06T04:47:09.498Z,210
2017-05-06T04:48:22.023Z,220
2017-05-06T04:49:34.556Z,230
2017-05-06T04:50:47.087Z,245
2017-05-06T04:51:59.329Z,245
2017-05-06T04:53:11.854Z,235
2017-05-06T04:54:24.375Z,215
2017-05-06T04:55:36.920Z,200
2017-05-06T04:56:49.464Z,190
2017-05-06T04:58:01.685Z,205
2017-05-06T04:59:13.919Z,225
2017-05-06T05:00:26.192Z,230
2017-05-06T05:01:38.741Z,210
2017-05-06T05:02:51.266Z,190
2017-05-06T05:04:03.813Z,180
2017-05-06T05:05:16.333Z,195
2017-05-06T05:06:28.850Z,200
2017-05-06T05:07:41.426Z,195
2017-05-06T05:08:53.938Z,185
2017-05-06T05:10:06.490Z,185
2017-05-06T05:11:18.713Z,210
2017-05-06T05:12:31.236Z,230
2017-05-06T05:13:43.755Z,210
2017-05-06T05:14:56.601Z,215
2017-05-06T05:16:08.838Z,225
2017-05-06T05:17:20.747Z,225
2017-05-06T05:18:32.666Z,255
2017-05-06T05:19:44.914Z,245
2017-05-06T05:20:57.763Z,225
2017-05-06T05:22:10.322Z,205
2017-05-06T05:23:22.250Z,220
2017-05-06T05:24:34.809Z,225
2017-05-06T05:25:47.334Z,235
2017-05-06T05:26:59.859Z,255
2017-05-06T05:28:12.056Z,285
2017-05-06T05:29:23.675Z,285
2017-05-06T05:30:35.897Z,255
2017-05-06T05:31:48.152Z,285
2017-05-06T05:33:00.762Z,330
2017-05-06T05:34:13.301Z,340
2017-05-06T05:35:25.510Z,310
2017-05-06T05:36:38.072Z,335
2017-05-06T05:37:50.598Z,355
2017-05-06T05:39:02.793Z,325
2017-05-06T05:40:15.336Z,285
2017-05-06T05:41:27.882Z,235
2017-05-06T05:42:40.427Z,245
2017-05-06T05:43:52.957Z,290
2017-05-06T05:45:05.531Z,265
2017-05-06T05:46:18.097Z,275
2017-05-06T05:47:30.657Z,325
2017-05-06T05:48:43.185Z,395
2017-05-06T05:49:55.714Z,335
2017-05-06T05:51:08.281Z,330
2017-05-06T05:52:19.898Z,410
2017-05-06T05:53:32.424Z,395
2017-05-06T05:54:44.665Z,460
2017-05-06T05:55:57.211Z,550
2017-05-06T05:57:09.737Z,595
2017-05-06T05:58:21.358Z,510
2017-05-06T05:59:33.903Z,470
2017-05-06T06:00:46.446Z,480
2017-05-06T06:01:58.994Z,495
2017-05-06T06:03:11.505Z,535
2017-05-06T06:04:23.782Z,610
2017-05-06T06:05:36.025Z,595
2017-05-06T06:06:48.246Z,620
2017-05-06T06:08:00.774Z,630
2017-05-06T06:09:12.969Z,645
2017-05-06T06:10:25.191Z,635
2017-05-06T06:11:37.737Z,585
2017-05-06T06:12:50.262Z,570
2017-05-06T06:14:02.500Z,560
2017-05-06T06:15:14.441Z,600
2017-05-06T06:16:26.685Z,605
2017-05-06T06:17:38.913Z,610
2017-05-06T06:18:51.453Z,620
2017-05-06T06:20:03.997Z,585
2017-05-06T06:21:15.643Z,560
2017-05-06T06:22:27.893Z,550
2017-05-06T06:23:40.422Z,520
2017-05-06T06:24:52.969Z,515
2017-05-06T06:26:05.816Z,510
2017-05-06T06:27:17.459Z,500
2017-05-06T06:28:29.976Z,520
2017-05-06T06:29:42.518Z,535
2017-05-06T06:30:55.060Z,560
2017-05-06T06:32:07.610Z,580
2017-05-06T06:33:20.127Z,590
2017-05-06T06:34:32.360Z,600
2017-05-06T06:35:44.577Z,610
2017-05-06T06:36:57.114Z,615
2017-05-06T06:38:09.645Z,640
2017-05-06T06:39:21.592Z,675
2017-05-06T06:40:33.531Z,720
2017-05-06T06:41:46.073Z,740
2017-05-06T06:42:58.286Z,740
2017-05-06T06:44:10.819Z,740
2017-05-06T06:45:23.345Z,740
2017-05-06T06:46:35.882Z,735
2017-05-06T06:47:48.387Z,700
2017-05-06T06:49:00.632Z,575
2017-05-06T06:50:12.555Z,540
2017-05-06T06:51:24.802Z,620
2017-05-06T06:52:37.337Z,670
2017-05-06T06:53:49.866Z,680
2017-05-06T06:55:02.407Z,670
2017-05-06T06:56:14.660Z,665
2017-05-06T06:57:26.879Z,675
2017-05-06T06:58:39.724Z,685
2017-05-06T06:59:52.274Z,670
2017-05-06T07:01:04.791Z,680
2017-05-06T07:02:16.730Z,655
2017-05-06T07:03:29.262Z,620
2017-05-06T07:04:41.478Z,615
2017-05-06T07:05:54.017Z,605
2017-05-06T07:07:06.548Z,585
2017-05-06T07:08:18.473Z,585
2017-05-06T07:09:31.037Z,575
2017-05-06T07:10:43.579Z,590
2017-05-06T07:11:56.108Z,610
2017-05-06T07:13:08.643Z,635
2017-05-06T07:14:20.873Z,645
2017-05-06T07:15:33.113Z,650
2017-05-06T07:16:45.655Z,635
2017-05-06T07:17:57.911Z,605
2017-05-06T07:19:09.854Z,600
2017-05-06T07:20:21.781Z,575
2017-05-06T07:21:34.002Z,550
2017-05-06T07:22:46.549Z,525
2017-05-06T07:23:59.110Z,540
2017-05-06T07:25:11.337Z,585
2017-05-06T07:26:23.905Z,600
2017-05-06T07:27:36.476Z,580
2017-05-06T07:28:49.002Z,540
2017-05-06T07:30:01.564Z,535
2017-05-06T07:31:14.410Z,535
2017-05-06T07:32:26.938Z,565
2017-05-06T07:33:39.173Z,585
2017-05-06T07:34:51.397Z,610
2017-05-06T07:36:03.926Z,610
2017-05-06T07:37:16.173Z,585
2017-05-06T07:38:28.714Z,590
2017-05-06T07:39:41.239Z,575
2017-05-06T07:40:53.787Z,565
2017-05-06T07:42:06.326Z,570
2017-05-06T07:43:18.251Z,560
2017-05-06T07:44:30.787Z,560
2017-05-06T07:45:43.318Z,585
2017-05-06T07:46:55.861Z,640
2017-05-06T07:48:08.406Z,630
2017-05-06T07:49:20.624Z,625
2017-05-06T07:50:33.170Z,630
2017-05-06T07:51:45.724Z,640
2017-05-06T07:52:57.968Z,640
2017-05-06T07:54:10.210Z,660
2017-05-06T07:55:21.839Z,730
2017-05-06T07:56:34.074Z,835
2017-05-06T07:57:46.629Z,1170
2017-05-06T07:58:59.166Z,1090
2017-05-06T08:00:11.707Z,1180
2017-05-06T08:01:23.937Z,1335
2017-05-06T08:02:36.487Z,1340
2017-05-06T08:03:49.032Z,1405
2017-05-06T08:05:01.567Z,1260
2017-05-06T08:06:14.095Z,1195
2017-05-06T08:07:26.620Z,1105
2017-05-06T08:08:39.430Z,995
2017-05-06T08:09:51.937Z,960
2017-05-06T08:11:04.482Z,990
2017-05-06T08:12:17.042Z,1130
2017-05-06T08:13:29.274Z,1440
2017-05-06T08:14:41.485Z,1655
2017-05-06T08:15:53.755Z,1630
2017-05-06T08:17:06.293Z,1545
2017-05-06T08:18:18.532Z,1475
2017-05-06T08:19:31.067Z,1380
2017-05-06T08:20:43.592Z,1380
2017-05-06T08:21:56.192Z,1350
2017-05-06T08:23:08.417Z,1320
2017-05-06T08:24:20.676Z,1340
2017-05-06T08:25:32.930Z,1370
2017-05-06T08:26:45.506Z,1370
2017-05-06T08:27:58.076Z,1395
2017-05-06T08:29:10.343Z,1390
2017-05-06T08:30:22.909Z,1375
2017-05-06T08:31:35.160Z,1315
2017-05-06T08:32:47.681Z,1320
2017-05-06T08:34:00.201Z,1305
2017-05-06T08:35:12.739Z,1215
2017-05-06T08:36:24.972Z,1145
2017-05-06T08:37:37.515Z,1125
2017-05-06T08:38:49.767Z,1065
2017-05-06T08:40:02.302Z,975
2017-05-06T08:41:14.530Z,970
2017-05-06T08:42:27.073Z,1030
2017-05-06T08:43:39.607Z,1145
2017-05-06T08:44:52.140Z,1280
2017-05-06T08:46:04.392Z,1460
2017-05-06T08:47:16.624Z,1550
2017-05-06T08:48:28.253Z,1590
2017-05-06T08:49:40.794Z,1580
2017-05-06T08:50:53.336Z,1535
2017-05-06T08:52:05.884Z,1535
2017-05-06T08:53:18.404Z,1465
2017-05-06T08:54:30.935Z,1340
2017-05-06T08:55:43.483Z,1315
2017-05-06T08:56:56.027Z,1360
2017-05-06T08:58:08.825Z,1390
2017-05-06T08:59:20.766Z,1355
2017-05-06T09:00:33.015Z,1350
2017-05-06T09:01:45.557Z,1390
2017-05-06T09:02:58.099Z,1525
2017-05-06T09:04:10.641Z,1660
2017-05-06T09:05:22.895Z,1685
2017-05-06T09:06:35.442Z,1685
2017-05-06T09:07:47.662Z,1710
2017-05-06T09:09:00.204Z,1650
2017-05-06T09:10:12.463Z,1740
2017-05-06T09:11:25.003Z,1740
2017-05-06T09:12:37.251Z,1710
2017-05-06T09:13:49.795Z,1790
2017-05-06T09:15:02.358Z,1855
2017-05-06T09:16:14.614Z,1755
2017-05-06T09:17:27.154Z,1685
2017-05-06T09:18:39.696Z,1680
2017-05-06T09:19:52.249Z,1680
2017-05-06T09:21:04.796Z,1695
2017-05-06T09:22:16.741Z,1630
2017-05-06T09:23:29.309Z,1600
2017-05-06T09:24:41.547Z,1655
2017-05-06T09:25:54.075Z,1720
2017-05-06T09:27:06.271Z,1710
2017-05-06T09:28:18.521Z,1600
2017-05-06T09:29:31.038Z,1525
2017-05-06T09:30:43.587Z,1535
2017-05-06T09:31:55.858Z,1660
2017-05-06T09:33:08.122Z,1585
2017-05-06T09:34:20.664Z,1490
2017-05-06T09:35:33.222Z,1355
2017-05-06T09:36:45.742Z,1325
2017-05-06T09:37:58.302Z,1360
2017-05-06T09:39:10.859Z,1270
2017-05-06T09:40:23.422Z,1265
2017-05-06T09:41:35.951Z,1140
2017-05-06T09:42:48.498Z,920
2017-05-06T09:44:01.014Z,805
2017-05-06T09:45:13.578Z,720
2017-05-06T09:46:25.798Z,680
2017-05-06T09:47:38.056Z,695
2017-05-06T09:48:50.265Z,760
2017-05-06T09:50:02.844Z,820
2017-05-06T09:51:15.369Z,875
2017-05-06T09:52:27.613Z,895
2017-05-06T09:53:40.149Z,860
2017-05-06T09:54:52.684Z,810
2017-05-06T09:56:05.224Z,745
2017-05-06T09:57:17.490Z,670
2017-05-06T09:58:29.758Z,580
2017-05-06T09:59:42.303Z,495
2017-05-06T10:00:54.840Z,470
2017-05-06T10:02:07.420Z,480
2017-05-06T10:03:19.649Z,460
2017-05-06T10:04:32.198Z,470
2017-05-06T10:05:44.762Z,495
2017-05-06T10:06:57.312Z,515
2017-05-06T10:08:09.857Z,505
2017-05-06T10:09:22.099Z,480
2017-05-06T10:10:34.628Z,465
2017-05-06T10:11:46.573Z,460
2017-05-06T10:12:58.791Z,465
2017-05-06T10:14:11.333Z,450
2017-05-06T10:15:23.900Z,430
2017-05-06T10:16:36.445Z,425
2017-05-06T10:17:48.353Z,435
2017-05-06T10:19:00.574Z,455
2017-05-06T10:20:12.819Z,470
2017-05-06T10:21:25.036Z,520
2017-05-06T10:22:37.265Z,575
2017-05-06T10:23:49.809Z,625
2017-05-06T10:25:02.332Z,655
2017-05-06T10:26:14.288Z,695
2017-05-06T10:27:26.834Z,770
2017-05-06T10:28:39.383Z,875
2017-05-06T10:29:51.614Z,975
2017-05-06T10:31:04.183Z,1105
2017-05-06T10:32:16.118Z,1305
2017-05-06T10:33:28.675Z,1500
2017-05-06T10:34:41.223Z,1540
2017-05-06T10:35:53.764Z,1705
2017-05-06T10:37:05.740Z,1635
2017-05-06T10:38:18.280Z,1650
2017-05-06T10:39:30.780Z,1835
2017-05-06T10:40:43.042Z,2165
2017-05-06T10:41:55.290Z,2025
2017-05-06T10:43:07.518Z,2005
2017-05-06T10:44:20.089Z,1940
2017-05-06T10:45:32.610Z,1830
2017-05-06T10:46:45.154Z,1720
2017-05-06T10:47:57.743Z,1665
2017-05-06T10:49:09.970Z,1670
2017-05-06T10:50:22.207Z,1720
2017-05-06T10:51:34.760Z,1735
2017-05-06T10:52:47.012Z,1700
2017-05-06T10:53:59.572Z,1580
2017-05-06T10:55:12.122Z,1415
2017-05-06T10:56:24.697Z,1350
2017-05-06T10:57:37.248Z,1395
2017-05-06T10:58:49.511Z,1455
2017-05-06T11:00:02.058Z,1470
2017-05-06T11:01:14.584Z,1390
2017-05-06T11:02:26.840Z,1340
2017-05-06T11:03:39.397Z,1320
2017-05-06T11:04:51.941Z,1200
2017-05-06T11:06:04.460Z,955
2017-05-06T11:07:16.403Z,710
2017-05-06T11:08:28.957Z,570
2017-05-06T11:09:41.520Z,450
2017-05-06T11:10:53.720Z,400
2017-05-06T11:12:06.266Z,375
2017-05-06T11:13:18.536Z,380
2017-05-06T11:14:31.086Z,355
2017-05-06T11:15:43.629Z,340
2017-05-06T11:16:55.874Z,375
2017-05-06T11:18:08.399Z,430
2017-05-06T11:19:20.943Z,470
2017-05-06T11:20:33.505Z,490
2017-05-06T11:21:46.037Z,485
2017-05-06T11:22:58.302Z,460
2017-05-06T11:24:10.843Z,415
2017-05-06T11:25:23.400Z,395
2017-05-06T11:26:35.663Z,400
2017-05-06T11:27:48.197Z,395
2017-05-06T11:29:00.433Z,345
2017-05-06T11:30:12.379Z,320
2017-05-06T11:31:24.628Z,315
2017-05-06T11:32:37.171Z,305
2017-05-06T11:33:49.723Z,290
2017-05-06T11:35:01.981Z,255
2017-05-06T11:36:14.533Z,215
2017-05-06T11:37:27.076Z,190
2017-05-06T11:38:39.325Z,175
2017-05-06T11:39:51.889Z,170
2017-05-06T11:41:04.722Z,170
2017-05-06T11:42:16.656Z,175
2017-05-06T11:43:28.865Z,180
2017-05-06T11:44:41.401Z,175
2017-05-06T11:45:53.922Z,175
2017-05-06T11:47:06.477Z,175
2017-05-06T11:48:19.021Z,180
2017-05-06T11:49:31.260Z,190
2017-05-06T11:50:43.785Z,210
2017-05-06T11:51:56.323Z,240
2017-05-06T11:53:08.895Z,290
2017-05-06T11:54:21.428Z,360
2017-05-06T11:55:33.996Z,440
2017-05-06T11:56:46.214Z,545
2017-05-06T11:57:58.739Z,700
2017-05-06T11:59:11.301Z,865
2017-05-06T12:00:23.255Z,1040
2017-05-06T12:01:35.773Z,1260
2017-05-06T12:02:47.676Z,2370
2017-05-06T12:04:00.194Z,2600
2017-05-06T12:05:12.436Z,2260
2017-05-06T12:06:24.677Z,1900
2017-05-06T12:07:36.907Z,1825
2017-05-06T12:08:49.448Z,2135
2017-05-06T12:10:01.976Z,1745
2017-05-06T12:11:14.198Z,1530
2017-05-06T12:12:26.737Z,1900
2017-05-06T12:13:39.282Z,2145
2017-05-06T12:14:50.887Z,2180
2017-05-06T12:16:03.424Z,2070
2017-05-06T12:17:15.373Z,2005
2017-05-06T12:18:27.883Z,1855
2017-05-06T12:19:40.454Z,1815
2017-05-06T12:20:53.009Z,1455
2017-05-06T12:22:05.257Z,1700
2017-05-06T12:23:17.527Z,1800
2017-05-06T12:24:29.474Z,1640
2017-05-06T12:25:42.020Z,1425
2017-05-06T12:26:54.583Z,1270
2017-05-06T12:28:06.830Z,1205
2017-05-06T12:29:19.054Z,1200
2017-05-06T12:30:31.657Z,1360
2017-05-06T12:31:44.200Z,1520
2017-05-06T12:32:56.764Z,1390
2017-05-06T12:34:09.013Z,1420
2017-05-06T12:35:21.255Z,1430
2017-05-06T12:36:33.782Z,1225
2017-05-06T12:37:46.327Z,1220
2017-05-06T12:38:58.274Z,1250
2017-05-06T12:40:10.214Z,1325
2017-05-06T12:41:22.459Z,1360
2017-05-06T12:42:35.012Z,1425
2017-05-06T12:43:47.561Z,1705
2017-05-06T12:45:00.104Z,1800
2017-05-06T12:46:12.375Z,1560
2017-05-06T12:47:24.935Z,1480
2017-05-06T12:48:37.200Z,1705
2017-05-06T12:49:49.463Z,1505
2017-05-06T12:51:02.009Z,1390
2017-05-06T12:52:14.244Z,1460
2017-05-06T12:53:26.476Z,1485
2017-05-06T12:54:39.028Z,1550
2017-05-06T12:55:51.585Z,1745
2017-05-06T12:57:04.110Z,1305
2017-05-06T12:58:16.060Z,1210
2017-05-06T12:59:28.605Z,1185
2017-05-06T13:00:41.145Z,1200
2017-05-06T13:01:53.711Z,1240
2017-05-06T13:03:05.924Z,1395
2017-05-06T13:04:18.481Z,1330
2017-05-06T13:05:31.053Z,1220
2017-05-06T13:06:43.298Z,1180
2017-05-06T13:07:55.848Z,1160
2017-05-06T13:09:08.412Z,1250
2017-05-06T13:10:20.985Z,1080
2017-05-06T13:11:33.539Z,1030
2017-05-06T13:12:46.081Z,1000
2017-05-06T13:13:58.599Z,985
2017-05-06T13:15:11.128Z,995
2017-05-06T13:16:23.374Z,1015
2017-05-06T13:17:35.619Z,1045
2017-05-06T13:18:48.141Z,1110
2017-05-06T13:20:00.389Z,1270
2017-05-06T13:21:12.630Z,1365
2017-05-06T13:22:25.154Z,1250
2017-05-06T13:23:37.713Z,1120
2017-05-06T13:24:50.266Z,1005
2017-05-06T13:26:02.786Z,1050
2017-05-06T13:27:15.037Z,925
2017-05-06T13:28:27.262Z,950
2017-05-06T13:29:39.822Z,1000
2017-05-06T13:30:52.372Z,1105
2017-05-06T13:32:04.920Z,1305
2017-05-06T13:33:17.490Z,1085
2017-05-06T13:34:30.030Z,1175
2017-05-06T13:35:42.259Z,1090
2017-05-06T13:36:54.793Z,1145
2017-05-06T13:38:07.349Z,1000
2017-05-06T13:39:19.891Z,785
2017-05-06T13:40:32.441Z,725
2017-05-06T13:41:44.983Z,800
2017-05-06T13:42:57.241Z,875
2017-05-06T13:44:09.500Z,960
2017-05-06T13:45:21.746Z,1045
2017-05-06T13:46:34.299Z,1100
2017-05-06T13:47:46.840Z,1135
2017-05-06T13:48:59.391Z,1015
2017-05-06T13:50:11.955Z,990
2017-05-06T13:51:24.202Z,970
2017-05-06T13:52:36.493Z,950
2017-05-06T13:53:49.027Z,905
2017-05-06T13:55:01.593Z,900
2017-05-06T13:56:13.842Z,895
2017-05-06T13:57:26.101Z,890
2017-05-06T13:58:38.644Z,870
2017-05-06T13:59:51.180Z,855
2017-05-06T14:01:03.761Z,855
2017-05-06T14:02:15.692Z,860
2017-05-06T14:03:28.232Z,905
2017-05-06T14:04:40.773Z,1005
2017-05-06T14:05:53.306Z,1060
2017-05-06T14:07:05.232Z,1030
2017-05-06T14:08:17.762Z,970
2017-05-06T14:09:29.994Z,930
2017-05-06T14:10:42.557Z,1030
2017-05-06T14:11:55.128Z,940
2017-05-06T14:13:07.702Z,945
2017-05-06T14:14:20.252Z,915
2017-05-06T14:15:32.824Z,960
2017-05-06T14:16:45.344Z,1030
2017-05-06T14:17:57.907Z,1065
2017-05-06T14:19:10.434Z,1105
2017-05-06T14:20:22.982Z,1470
2017-05-06T14:21:34.319Z,1230
2017-05-06T14:22:46.866Z,1790
2017-05-06T14:23:59.387Z,1495
2017-05-06T14:25:11.640Z,1295
2017-05-06T14:26:24.202Z,1350
2017-05-06T14:27:36.725Z,1165
2017-05-06T14:28:49.270Z,1280
2017-05-06T14:30:01.845Z,1815
2017-05-06T14:31:14.387Z,1445
2017-05-06T14:32:26.639Z,1100
2017-05-06T14:33:38.879Z,1085
2017-05-06T14:34:51.408Z,1125
2017-05-06T14:36:03.954Z,1160
2017-05-06T14:37:15.917Z,1170
2017-05-06T14:38:28.496Z,1135
2017-05-06T14:39:41.055Z,1095
2017-05-06T14:40:53.284Z,1050
2017-05-06T14:42:05.803Z,960
2017-05-06T14:43:17.745Z,795
2017-05-06T14:44:29.393Z,665
2017-05-06T14:45:41.947Z,605
2017-05-06T14:46:54.510Z,560
2017-05-06T14:48:07.038Z,570
2017-05-06T14:49:19.272Z,590
2017-05-06T14:50:31.819Z,585
2017-05-06T14:51:44.376Z,560
2017-05-06T14:52:56.946Z,495
2017-05-06T14:54:09.468Z,465
2017-05-06T14:55:21.689Z,490
2017-05-06T14:56:34.258Z,505
2017-05-06T14:57:46.809Z,490
2017-05-06T14:58:59.351Z,455
2017-05-06T15:00:11.922Z,450
2017-05-06T15:01:24.443Z,460
2017-05-06T15:02:37.003Z,465
2017-05-06T15:03:49.531Z,435
2017-05-06T15:05:02.056Z,410
2017-05-06T15:06:14.320Z,430
2017-05-06T15:07:26.866Z,465
2017-05-06T15:08:39.091Z,480
2017-05-06T15:09:51.632Z,495
2017-05-06T15:11:04.174Z,510
2017-05-06T15:12:16.120Z,520
2017-05-06T15:13:28.669Z,510
2017-05-06T15:14:41.236Z,485
2017-05-06T15:15:53.768Z,460
2017-05-06T15:17:05.989Z,440
2017-05-06T15:18:18.757Z,435
2017-05-06T15:19:31.279Z,440
2017-05-06T15:20:43.806Z,460
2017-05-06T15:21:56.349Z,475
2017-05-06T15:23:08.883Z,500
2017-05-06T15:24:20.840Z,520
2017-05-06T15:25:33.387Z,535
2017-05-06T15:26:45.954Z,530
2017-05-06T15:27:58.475Z,520
2017-05-06T15:29:11.022Z,510
2017-05-06T15:30:23.263Z,495
2017-05-06T15:31:35.794Z,500
2017-05-06T15:32:48.350Z,515
2017-05-06T15:34:00.556Z,530
2017-05-06T15:35:12.477Z,540
2017-05-06T15:36:25.016Z,545
2017-05-06T15:37:37.216Z,555
2017-05-06T15:38:49.754Z,555
2017-05-06T15:40:02.233Z,570
2017-05-06T15:41:14.526Z,570
2017-05-06T15:42:27.083Z,570
2017-05-06T15:43:39.613Z,555
2017-05-06T15:44:52.442Z,560
2017-05-06T15:46:04.993Z,565
2017-05-06T15:47:17.534Z,565
2017-05-06T15:48:30.105Z,565
2017-05-06T15:49:42.330Z,560
2017-05-06T15:50:54.550Z,560
2017-05-06T15:52:07.048Z,560
2017-05-06T15:53:19.588Z,560
2017-05-06T15:54:32.157Z,565
2017-05-06T15:55:44.708Z,570
2017-05-06T15:56:57.252Z,580
2017-05-06T15:58:09.475Z,585
2017-05-06T15:59:22.035Z,590
2017-05-06T16:00:34.568Z,590
2017-05-06T16:01:47.052Z,590
2017-05-06T16:02:58.704Z,595
2017-05-06T16:04:11.248Z,605
2017-05-06T16:05:23.793Z,615
2017-05-06T16:06:35.747Z,620
2017-05-06T16:07:48.315Z,635
2017-05-06T16:09:00.878Z,625
2017-05-06T16:10:13.405Z,625
2017-05-06T16:11:25.329Z,615
2017-05-06T16:12:37.873Z,595
2017-05-06T16:13:50.419Z,590
2017-05-06T16:15:02.360Z,595
2017-05-06T16:16:14.618Z,605
2017-05-06T16:17:27.182Z,615
2017-05-06T16:18:39.406Z,615
2017-05-06T16:19:51.945Z,610
2017-05-06T16:21:04.472Z,605
2017-05-06T16:22:16.125Z,610
2017-05-06T16:23:28.929Z,605
2017-05-06T16:24:41.458Z,600
2017-05-06T16:25:53.706Z,590
2017-05-06T16:27:05.944Z,565
2017-05-06T16:28:18.170Z,535
2017-05-06T16:29:30.712Z,510
2017-05-06T16:30:43.268Z,490
2017-05-06T16:31:55.811Z,460
2017-05-06T16:33:08.378Z,435
2017-05-06T16:34:20.902Z,425
2017-05-06T16:35:33.449Z,405
2017-05-06T16:36:46.016Z,390
2017-05-06T16:37:58.575Z,370
2017-05-06T16:39:11.363Z,355
2017-05-06T16:40:23.908Z,350
2017-05-06T16:41:36.471Z,335
2017-05-06T16:42:49.024Z,325
2017-05-06T16:44:01.587Z,315